createdAt,value
2023-04-09T00:02:19.821Z,12.00
2023-04-09T00:05:06.437Z,12.20
2023-04-09T00:07:51.826Z,11.82
2023-04-09T00:10:37.080Z,12.60
2023-04-09T00:13:35.588Z,11.45
2023-04-09T00:16:23.663Z,13.10
2023-04-09T00:19:08.681Z,13.70
2023-04-09T00:21:53.866Z,16.17
2023-04-09T00:24:38.836Z,17.30
2023-04-09T00:27:23.591Z,17.23
2023-04-09T00:30:09.183Z,16.65
2023-04-09T00:32:54.287Z,16.98
2023-04-09T00:35:39.792Z,16.30
2023-04-09T00:38:25.292Z,17.42
2023-04-09T00:41:10.559Z,17.88
2023-04-09T00:43:58.887Z,17.25
2023-04-09T00:46:43.694Z,17.83
2023-04-09T00:49:29.061Z,19.05
2023-04-09T00:52:14.236Z,18.65
2023-04-09T00:55:00.726Z,19.27
2023-04-09T00:57:45.671Z,18.63
2023-04-09T01:00:31.076Z,17.55
2023-04-09T01:03:16.582Z,17.58
2023-04-09T01:06:35.173Z,17.17
2023-04-09T01:09:37.239Z,18.13
2023-04-09T01:12:41.294Z,17.25
2023-04-09T01:15:29.740Z,18.80
2023-04-09T01:18:17.782Z,21.00
2023-04-09T01:21:07.188Z,22.33
2023-04-09T01:24:11.100Z,22.75
2023-04-09T01:27:06.671Z,23.50
2023-04-09T01:29:53.442Z,27.38
2023-04-09T01:32:39.282Z,26.38
2023-04-09T01:35:26.086Z,27.70
2023-04-09T01:38:13.758Z,27.83
2023-04-09T01:41:00.818Z,27.00
2023-04-09T01:43:46.763Z,28.52
2023-04-09T01:46:33.485Z,27.20
2023-04-09T01:49:18.814Z,26.13
2023-04-09T01:52:04.383Z,26.38
2023-04-09T01:54:49.348Z,24.25
2023-04-09T01:57:34.169Z,25.42
2023-04-09T02:00:19.508Z,25.60
2023-04-09T02:03:10.784Z,26.52
2023-04-09T02:06:01.146Z,25.60
2023-04-09T02:08:47.760Z,24.98
2023-04-09T02:11:34.164Z,28.10
2023-04-09T02:14:21.218Z,28.35
2023-04-09T02:17:13.530Z,29.33
2023-04-09T02:19:58.825Z,29.00
2023-04-09T02:22:43.993Z,30.42
2023-04-09T02:25:29.304Z,30.17
2023-04-09T02:28:14.508Z,32.17
2023-04-09T02:30:59.883Z,31.05
2023-04-09T02:33:44.867Z,31.90
2023-04-09T02:36:31.113Z,32.45
2023-04-09T02:39:16.641Z,31.85
2023-04-09T02:42:02.211Z,32.67
2023-04-09T02:44:47.016Z,32.40
2023-04-09T02:47:31.986Z,33.28
2023-04-09T02:50:17.530Z,32.35
2023-04-09T02:53:02.814Z,32.63
2023-04-09T02:55:48.156Z,31.02
2023-04-09T02:58:33.476Z,31.73
2023-04-09T03:01:18.556Z,31.70
2023-04-09T03:04:04.246Z,32.35
2023-04-09T03:06:51.632Z,31.52
2023-04-09T03:09:36.691Z,30.35
2023-04-09T03:12:21.958Z,31.33
2023-04-09T03:15:07.390Z,31.73
2023-04-09T03:17:52.632Z,32.60
2023-04-09T03:20:39.527Z,31.50
2023-04-09T03:23:24.745Z,33.30
2023-04-09T03:26:09.788Z,32.13
2023-04-09T03:28:54.944Z,33.05
2023-04-09T03:31:40.341Z,32.13
2023-04-09T03:34:25.381Z,32.03
2023-04-09T03:37:10.336Z,33.70
2023-04-09T03:39:55.212Z,35.38
2023-04-09T03:42:42.546Z,32.47
2023-04-09T03:45:29.256Z,33.00
2023-04-09T03:48:14.460Z,32.50
2023-04-09T03:50:59.406Z,31.85
2023-04-09T03:53:44.779Z,33.40
2023-04-09T03:56:29.748Z,32.75
2023-04-09T03:59:14.659Z,32.20
2023-04-09T04:01:59.590Z,32.50
2023-04-09T04:04:45.830Z,32.25
2023-04-09T04:07:32.324Z,32.50
2023-04-09T04:10:17.363Z,33.40
2023-04-09T04:13:02.912Z,32.95
2023-04-09T04:15:48.197Z,33.85
2023-04-09T04:18:33.390Z,34.10
2023-04-09T04:21:18.260Z,35.97
2023-04-09T04:24:03.269Z,35.08
2023-04-09T04:26:48.562Z,37.20
2023-04-09T04:29:33.604Z,36.78
2023-04-09T04:32:19.129Z,36.00
2023-04-09T04:35:04.122Z,35.75
2023-04-09T04:37:51.047Z,35.53
2023-04-09T04:40:36.919Z,34.58
2023-04-09T04:43:22.146Z,36.03
2023-04-09T04:46:07.175Z,34.80
2023-04-09T04:48:52.372Z,34.70
2023-04-09T04:51:37.665Z,34.15
2023-04-09T04:54:22.623Z,34.60
2023-04-09T04:57:07.786Z,35.38
2023-04-09T04:59:52.854Z,35.88
2023-04-09T05:02:38.346Z,32.63
2023-04-09T05:05:23.707Z,33.65
2023-04-09T05:08:09.078Z,35.95
2023-04-09T05:10:56.166Z,34.67
2023-04-09T05:13:41.459Z,33.00
2023-04-09T05:16:27.104Z,32.80
2023-04-09T05:19:12.313Z,32.50
2023-04-09T05:21:57.590Z,32.40
2023-04-09T05:24:42.548Z,30.70
2023-04-09T05:27:28.200Z,32.60
2023-04-09T05:30:13.471Z,31.55
2023-04-09T05:32:58.868Z,32.35
2023-04-09T05:35:43.956Z,32.72
2023-04-09T05:38:29.053Z,32.75
2023-04-09T05:41:14.183Z,32.78
2023-04-09T05:44:00.791Z,32.25
2023-04-09T05:46:46.385Z,34.13
2023-04-09T05:49:31.486Z,30.73
2023-04-09T05:52:19.941Z,30.80
2023-04-09T05:55:06.621Z,32.03
2023-04-09T05:57:54.723Z,32.35
2023-04-09T06:00:39.962Z,32.28
2023-04-09T06:03:25.602Z,31.60
2023-04-09T06:06:11.021Z,30.58
2023-04-09T06:08:56.435Z,29.17
2023-04-09T06:11:41.681Z,30.73
2023-04-09T06:14:26.767Z,31.48
2023-04-09T06:17:11.694Z,30.13
2023-04-09T06:19:56.543Z,31.35
2023-04-09T06:22:41.890Z,28.83
2023-04-09T06:25:27.136Z,28.75
2023-04-09T06:28:12.372Z,29.88
2023-04-09T06:30:58.399Z,29.17
2023-04-09T06:33:43.324Z,29.50
2023-04-09T06:36:28.436Z,28.23
2023-04-09T06:39:13.584Z,28.85
2023-04-09T06:41:58.921Z,25.92
2023-04-09T06:44:44.063Z,28.17
2023-04-09T06:47:29.037Z,26.85
2023-04-09T06:50:13.965Z,26.67
2023-04-09T06:52:59.109Z,24.02
2023-04-09T06:55:44.310Z,24.88
2023-04-09T06:58:29.624Z,23.15
2023-04-09T07:01:17.205Z,23.90
2023-04-09T07:04:02.573Z,23.75
2023-04-09T07:06:47.698Z,23.55
2023-04-09T07:09:32.965Z,25.13
2023-04-09T07:12:28.226Z,24.77
2023-04-09T07:15:14.689Z,24.83
2023-04-09T07:17:59.812Z,24.48
2023-04-09T07:20:45.239Z,24.13
2023-04-09T07:23:30.555Z,23.50
2023-04-09T07:26:15.556Z,25.92
2023-04-09T07:29:00.703Z,24.75
2023-04-09T07:31:46.436Z,24.38
2023-04-09T07:34:32.010Z,24.92
2023-04-09T07:37:17.232Z,22.75
2023-04-09T07:40:04.037Z,22.70
2023-04-09T07:42:49.765Z,23.00
2023-04-09T07:45:34.804Z,23.52
2023-04-09T07:48:19.651Z,24.70
2023-04-09T07:51:06.163Z,24.00
2023-04-09T07:53:51.528Z,24.85
2023-04-09T07:56:37.092Z,26.95
2023-04-09T07:59:22.287Z,26.85
2023-04-09T08:02:07.929Z,13.10
2023-04-09T08:04:53.337Z,28.83
2023-04-09T08:07:38.783Z,28.23
2023-04-09T08:10:24.104Z,28.10
2023-04-09T08:13:10.195Z,28.85
2023-04-09T08:15:57.287Z,30.15
2023-04-09T08:18:42.630Z,30.20
2023-04-09T08:21:27.830Z,32.78
2023-04-09T08:24:12.878Z,32.70
2023-04-09T08:26:57.903Z,34.00
2023-04-09T08:29:42.890Z,33.15
2023-04-09T08:32:28.236Z,34.13
2023-04-09T08:35:13.327Z,34.47
2023-04-09T08:37:59.366Z,33.10
2023-04-09T08:40:44.505Z,33.55
2023-04-09T08:43:47.228Z,32.80
2023-04-09T08:46:37.258Z,32.97
2023-04-09T08:49:22.463Z,33.17
2023-04-09T08:52:08.154Z,35.22
2023-04-09T08:54:53.107Z,34.95
2023-04-09T08:57:39.268Z,35.45
2023-04-09T09:00:24.397Z,35.38
2023-04-09T09:03:13.109Z,37.80
2023-04-09T09:05:58.935Z,36.63
2023-04-09T09:08:43.846Z,36.78
2023-04-09T09:11:30.377Z,36.20
2023-04-09T09:14:18.469Z,36.22
2023-04-09T09:17:05.256Z,38.88
2023-04-09T09:19:50.319Z,36.53
2023-04-09T09:22:54.882Z,38.53
2023-04-09T09:25:42.023Z,39.25
2023-04-09T09:28:35.493Z,39.13
2023-04-09T09:31:22.557Z,38.63
2023-04-09T09:34:11.371Z,38.97
2023-04-09T09:36:56.754Z,39.03
2023-04-09T09:39:45.058Z,36.17
2023-04-09T09:42:30.393Z,36.05
2023-04-09T09:45:19.352Z,39.30
2023-04-09T09:48:10.594Z,37.97
2023-04-09T09:50:56.113Z,39.42
2023-04-09T09:53:46.196Z,40.10
2023-04-09T09:56:38.545Z,40.55
2023-04-09T09:59:30.666Z,39.53
2023-04-09T10:02:20.609Z,39.10
2023-04-09T10:07:52.019Z,37.60
2023-04-09T10:10:42.032Z,37.28
2023-04-09T10:16:23.206Z,36.88
2023-04-09T10:19:13.876Z,35.83
2023-04-09T10:22:07.958Z,33.42
2023-04-09T10:24:53.083Z,34.00
2023-04-09T10:27:38.321Z,36.03
2023-04-09T10:30:36.778Z,33.90
2023-04-09T10:33:27.842Z,34.47
2023-04-09T10:36:13.364Z,32.38
2023-04-09T10:38:58.768Z,31.33
2023-04-09T10:41:46.280Z,29.90
2023-04-09T10:44:32.139Z,27.75
2023-04-09T10:47:33.803Z,27.27
2023-04-09T10:50:20.357Z,27.90
2023-04-09T10:53:06.367Z,28.33
2023-04-09T10:55:53.007Z,29.02
2023-04-09T10:58:38.248Z,29.70
2023-04-09T11:01:24.237Z,29.13
2023-04-09T11:04:21.113Z,29.15
2023-04-09T11:07:06.776Z,28.40
2023-04-09T11:09:51.633Z,30.15
2023-04-09T11:12:36.762Z,28.90
2023-04-09T11:15:22.159Z,28.02
2023-04-09T11:18:07.196Z,29.13
2023-04-09T11:21:00.463Z,29.63
2023-04-09T11:23:52.449Z,28.65
2023-04-09T11:26:37.638Z,26.67
2023-04-09T11:29:23.048Z,27.15
2023-04-09T11:32:08.045Z,27.90
2023-04-09T11:34:53.228Z,27.83
2023-04-09T11:37:38.348Z,26.92
2023-04-09T11:40:29.086Z,27.48
2023-04-09T11:43:16.669Z,27.67
2023-04-09T11:46:02.158Z,27.33
2023-04-09T11:48:48.697Z,27.27
2023-04-09T11:51:35.535Z,25.73
2023-04-09T11:54:20.831Z,25.48
2023-04-09T11:57:06.794Z,25.35
2023-04-09T11:59:51.891Z,28.15
2023-04-09T12:02:42.476Z,24.08
2023-04-09T12:05:30.088Z,24.35
2023-04-09T12:08:16.984Z,22.17
2023-04-09T12:11:12.631Z,23.73
2023-04-09T12:14:05.161Z,22.83
2023-04-09T12:16:53.422Z,21.65
2023-04-09T12:19:38.387Z,21.45
2023-04-09T12:22:23.381Z,20.55
2023-04-09T12:25:08.721Z,18.50
2023-04-09T12:27:56.089Z,17.95
2023-04-09T12:30:41.500Z,19.85
2023-04-09T12:33:26.401Z,19.65
2023-04-09T12:36:11.692Z,18.63
2023-04-09T12:38:57.032Z,17.77
2023-04-09T12:41:42.316Z,17.15
2023-04-09T12:44:27.661Z,16.35
2023-04-09T12:47:13.437Z,16.33
2023-04-09T12:49:58.670Z,15.77
2023-04-09T12:52:44.586Z,15.50
2023-04-09T12:55:29.701Z,14.20
2023-04-09T12:58:15.354Z,11.55
2023-04-09T13:01:01.364Z,10.00
2023-04-09T13:03:46.669Z,10.18
2023-04-09T13:06:32.671Z,12.32
2023-04-09T13:09:17.807Z,11.70
2023-04-09T13:12:03.184Z,10.02
2023-04-09T13:14:48.706Z,9.98
2023-04-09T13:17:33.986Z,11.63
2023-04-09T13:20:19.575Z,10.35
2023-04-09T13:23:04.764Z,10.98
2023-04-09T13:25:50.066Z,11.35
2023-04-09T13:28:35.257Z,9.35
2023-04-09T13:31:20.250Z,8.25
2023-04-09T13:34:06.507Z,7.60
2023-04-09T13:36:51.855Z,8.60
2023-04-09T13:39:37.019Z,8.32
2023-04-09T13:42:22.108Z,7.63
2023-04-09T13:45:07.634Z,5.88
2023-04-09T13:47:52.766Z,6.70
2023-04-09T13:50:38.289Z,7.00
2023-04-09T13:53:25.135Z,8.05
2023-04-09T13:56:10.243Z,7.20
2023-04-09T13:58:55.616Z,5.80
2023-04-09T14:01:40.912Z,5.30
2023-04-09T14:04:26.701Z,6.00
2023-04-09T14:07:11.987Z,5.82
2023-04-09T14:09:57.108Z,6.30
2023-04-09T14:12:42.432Z,5.72
2023-04-09T14:15:27.379Z,5.55
2023-04-09T14:18:12.534Z,5.63
2023-04-09T14:20:58.730Z,5.57
2023-04-09T14:23:43.877Z,5.80
2023-04-09T14:26:29.194Z,8.05
2023-04-09T14:29:14.542Z,7.30
2023-04-09T14:32:00.854Z,7.13
2023-04-09T14:34:46.041Z,7.22
2023-04-09T14:37:31.752Z,5.60
2023-04-09T14:40:16.773Z,5.82
2023-04-09T14:43:02.052Z,6.35
2023-04-09T14:45:47.441Z,5.28
2023-04-09T14:48:32.393Z,4.80
2023-04-09T14:51:17.759Z,4.25
2023-04-09T14:54:02.962Z,4.78
2023-04-09T14:56:48.174Z,4.20
2023-04-09T14:59:33.133Z,3.45
2023-04-09T15:02:18.624Z,4.15
2023-04-09T15:05:04.756Z,4.60
2023-04-09T15:07:50.127Z,3.47
2023-04-09T15:10:37.055Z,4.82
2023-04-09T15:13:22.271Z,2.75
2023-04-09T15:16:07.670Z,2.90
2023-04-09T15:18:55.891Z,4.18
2023-04-09T15:21:41.625Z,4.65
2023-04-09T15:24:26.706Z,3.70
2023-04-09T15:27:11.930Z,5.10
2023-04-09T15:29:56.974Z,4.30
2023-04-09T15:32:42.248Z,2.75
2023-04-09T15:35:29.326Z,2.90
2023-04-09T15:38:14.490Z,3.45
2023-04-09T15:40:59.872Z,3.88
2023-04-09T15:43:45.311Z,4.13
2023-04-09T15:46:31.652Z,3.30
2023-04-09T15:49:16.873Z,3.55
2023-04-09T15:52:02.203Z,3.60
2023-04-09T15:54:47.335Z,3.60
2023-04-09T15:57:32.295Z,3.42
2023-04-09T16:00:17.773Z,3.63
2023-04-09T16:03:02.853Z,3.78
2023-04-09T16:05:48.558Z,3.50
2023-04-09T16:08:34.609Z,4.35
2023-04-09T16:11:19.911Z,4.28
2023-04-09T16:14:05.273Z,4.38
2023-04-09T16:16:51.299Z,5.63
2023-04-09T16:19:36.458Z,5.93
2023-04-09T16:22:21.630Z,6.03
2023-04-09T16:25:07.706Z,6.30
2023-04-09T16:27:53.083Z,5.45
2023-04-09T16:30:38.270Z,6.47
2023-04-09T16:33:23.312Z,5.38
2023-04-09T16:36:09.963Z,6.25
2023-04-09T16:38:55.353Z,6.45
2023-04-09T16:41:40.418Z,5.60
2023-04-09T16:44:25.905Z,5.78
2023-04-09T16:47:11.020Z,5.22
2023-04-09T16:49:56.352Z,4.95
2023-04-09T16:52:43.244Z,4.22
2023-04-09T16:55:28.417Z,4.35
2023-04-09T16:58:13.774Z,4.78
2023-04-09T17:00:59.226Z,4.80
2023-04-09T17:03:44.205Z,4.43
2023-04-09T17:06:29.443Z,4.35
2023-04-09T17:09:14.742Z,4.90
2023-04-09T17:11:59.891Z,4.63
2023-04-09T17:14:45.327Z,4.63
2023-04-09T17:17:30.932Z,5.07
2023-04-09T17:20:17.003Z,4.35
2023-04-09T17:23:02.217Z,3.13
2023-04-09T17:25:47.566Z,3.17
2023-04-09T17:28:32.936Z,3.00
2023-04-09T17:31:18.859Z,3.20
2023-04-09T17:34:04.974Z,3.20
2023-04-09T17:36:56.289Z,3.55
2023-04-09T17:39:41.579Z,4.47
2023-04-09T17:42:26.708Z,4.22
2023-04-09T17:45:12.381Z,6.65
2023-04-09T17:47:57.595Z,7.00
2023-04-09T17:50:42.739Z,6.63
2023-04-09T17:53:27.652Z,6.75
2023-04-09T17:56:16.990Z,6.70
2023-04-09T17:59:02.261Z,6.22
2023-04-09T18:01:47.527Z,5.65
2023-04-09T18:04:35.109Z,5.25
2023-04-09T18:07:21.318Z,5.50
2023-04-09T18:10:06.870Z,5.82
2023-04-09T18:12:51.897Z,4.55
2023-04-09T18:15:37.319Z,4.43
2023-04-09T18:18:22.693Z,5.72
2023-04-09T18:21:07.865Z,5.97
2023-04-09T18:23:53.065Z,5.53
2023-04-09T18:26:38.154Z,5.10
2023-04-09T18:29:23.182Z,4.68
2023-04-09T18:32:08.016Z,4.30
2023-04-09T18:34:53.239Z,4.43
2023-04-09T18:37:41.749Z,4.63
2023-04-09T18:40:27.010Z,5.00
2023-04-09T18:43:12.462Z,4.50
2023-04-09T18:45:59.191Z,4.97
2023-04-09T18:48:44.242Z,5.32
2023-04-09T18:51:30.688Z,5.43
2023-04-09T18:54:16.130Z,6.40
2023-04-09T18:57:04.136Z,6.68
2023-04-09T18:59:49.433Z,6.68
2023-04-09T19:02:34.634Z,7.40
2023-04-09T19:05:19.585Z,7.70
2023-04-09T19:08:07.868Z,6.25
2023-04-09T19:10:53.617Z,5.90
2023-04-09T19:13:39.262Z,5.65
2023-04-09T19:16:24.326Z,5.32
2023-04-09T19:19:10.865Z,6.28
2023-04-09T19:21:56.176Z,11.65
2023-04-09T19:24:44.444Z,13.85
2023-04-09T19:27:29.589Z,13.85
2023-04-09T19:30:14.727Z,13.75
2023-04-09T19:32:59.869Z,10.05
2023-04-09T19:35:48.414Z,9.25
2023-04-09T19:38:33.898Z,8.57
2023-04-09T19:41:19.092Z,9.90
2023-04-09T19:44:07.288Z,10.27
2023-04-09T19:46:52.411Z,10.63
2023-04-09T19:49:38.203Z,9.35
2023-04-09T19:52:23.422Z,8.55
2023-04-09T19:55:09.186Z,8.73
2023-04-09T19:57:54.358Z,9.75
2023-04-09T20:00:39.451Z,8.30
2023-04-09T20:03:24.405Z,7.85
2023-04-09T20:06:10.408Z,7.80
2023-04-09T20:08:55.919Z,8.43
2023-04-09T20:11:42.101Z,8.18
2023-04-09T20:14:27.254Z,7.32
2023-04-09T20:17:13.517Z,7.85
2023-04-09T20:19:58.428Z,9.00
2023-04-09T20:22:47.327Z,9.70
2023-04-09T20:25:35.003Z,9.93
2023-04-09T20:28:20.127Z,9.40
2023-04-09T20:31:06.062Z,9.18
2023-04-09T20:33:50.830Z,10.60
2023-04-09T20:36:37.630Z,9.52
2023-04-09T20:39:26.616Z,11.40
2023-04-09T20:42:11.815Z,12.25
2023-04-09T20:44:58.253Z,11.82
2023-04-09T20:47:44.847Z,15.13
2023-04-09T20:50:30.974Z,12.68
2023-04-09T20:53:16.310Z,13.02
2023-04-09T20:56:02.178Z,13.35
2023-04-09T20:58:47.385Z,14.32
2023-04-09T21:01:33.406Z,14.00
2023-04-09T21:04:19.488Z,13.05
2023-04-09T21:07:04.871Z,14.27
2023-04-09T21:09:49.826Z,13.88
2023-04-09T21:12:34.815Z,14.18
2023-04-09T21:15:20.314Z,13.55
2023-04-09T21:18:05.768Z,14.38
2023-04-09T21:20:51.678Z,14.38
2023-04-09T21:23:36.774Z,15.05
2023-04-09T21:26:22.025Z,14.73
2023-04-09T21:29:07.114Z,15.38
2023-04-09T21:31:52.346Z,15.40
2023-04-09T21:34:39.825Z,14.18
2023-04-09T21:37:25.187Z,14.23
2023-04-09T21:40:10.690Z,14.50
2023-04-09T21:42:57.058Z,14.23
2023-04-09T21:45:42.284Z,13.43
2023-04-09T21:48:30.589Z,13.30
2023-04-09T21:51:16.094Z,13.27
2023-04-09T21:54:11.463Z,12.80
2023-04-09T21:56:56.932Z,13.63
2023-04-09T21:59:42.331Z,13.60
2023-04-09T22:02:28.114Z,11.38
2023-04-09T22:05:13.504Z,12.70
2023-04-09T22:07:58.753Z,12.73
2023-04-09T22:10:45.678Z,12.52
2023-04-09T22:13:30.587Z,13.45
2023-04-09T22:16:17.102Z,13.23
2023-04-09T22:19:02.479Z,15.30
2023-04-09T22:21:50.546Z,13.93
2023-04-09T22:24:35.610Z,14.95
2023-04-09T22:27:20.620Z,14.52
2023-04-09T22:30:06.359Z,14.77
2023-04-09T22:32:51.888Z,14.63
2023-04-09T22:35:37.105Z,16.38
2023-04-09T22:38:22.736Z,16.70
2023-04-09T22:41:07.659Z,17.05
2023-04-09T22:43:54.032Z,17.10
2023-04-09T22:46:38.990Z,16.75
2023-04-09T22:49:24.252Z,18.10
2023-04-09T22:52:09.645Z,18.33
2023-04-09T22:54:54.831Z,19.55
2023-04-09T22:57:42.752Z,20.10
2023-04-09T23:00:27.738Z,19.30
2023-04-09T23:03:13.230Z,18.90
2023-04-09T23:05:58.500Z,20.35
2023-04-09T23:08:44.353Z,19.95
2023-04-09T23:11:30.528Z,21.83
2023-04-09T23:14:15.667Z,21.63
2023-04-09T23:17:01.041Z,22.95
2023-04-09T23:19:46.182Z,22.70
2023-04-09T23:22:31.157Z,23.45
2023-04-09T23:25:16.566Z,23.85
2023-04-09T23:28:01.847Z,22.45
2023-04-09T23:30:47.023Z,24.33
2023-04-09T23:33:32.633Z,29.35
2023-04-09T23:36:17.869Z,24.25
2023-04-09T23:39:03.406Z,23.65
2023-04-09T23:41:48.534Z,21.00
2023-04-09T23:44:34.005Z,23.63
2023-04-09T23:47:19.080Z,24.88
2023-04-09T23:50:06.657Z,24.42
2023-04-09T23:52:51.996Z,24.25
2023-04-09T23:55:41.445Z,23.95
2023-04-09T23:58:26.554Z,22.75
